Time;durP1;ratioP1;P1;durP2;ratioP2;P2;SDS_P1;SDS_P2;PMS_P1;PMS_P2;Temp;Humidity;BMP_temperature;BMP_pressure;BME280_temperature;BME280_humidity;BME280_pressure;Samples;Min_cycle;Max_cycle;Signal;HPM_P1;HPM_P2
2021/08/31 00:00:14;;;;;;;9.75;8.68;;;;;;;24.85;64.20;99048.16;1830233;77;21053;-71
2021/08/31 00:02:40;;;;;;;9.53;8.63;;;;;;;24.84;64.09;99059.58;1837228;77;21055;-71
2021/08/31 00:05:10;;;;;;;9.45;8.43;;;;;;;24.83;64.06;99057.94;1841717;76;21022;-72
2021/08/31 00:07:36;;;;;;;9.78;8.83;;;;;;;24.83;64.09;99059.30;1822112;77;21594;-68
2021/08/31 00:10:05;;;;;;;22.98;20.65;;;;;;;24.83;64.09;99059.30;1806090;78;21088;-69
2021/08/31 00:12:33;;;;;;;25.50;22.85;;;;;;;24.82;64.08;99054.98;1830650;77;21033;-68
2021/08/31 00:15:01;;;;;;;12.40;11.25;;;;;;;24.83;63.90;99051.70;1824808;77;21567;-70
2021/08/31 00:17:28;;;;;;;13.30;12.00;;;;;;;24.83;63.88;99040.84;1817589;77;21025;-72
2021/08/31 00:19:54;;;;;;;11.15;10.05;;;;;;;24.81;63.87;99037.04;1804168;78;21603;-70
2021/08/31 00:22:21;;;;;;;12.25;11.00;;;;;;;24.81;63.81;99038.40;1803800;77;21022;-70
2021/08/31 00:24:47;;;;;;;10.72;9.73;;;;;;;24.80;63.84;99040.86;1812346;77;21517;-69
2021/08/31 00:27:13;;;;;;;11.85;10.38;;;;;;;24.80;63.76;99044.94;1803545;78;21045;-69
2021/08/31 00:29:40;;;;;;;16.45;10.60;;;;;;;24.79;63.71;99044.66;1805778;78;22051;-70
2021/08/31 00:32:08;;;;;;;10.18;9.18;;;;;;;24.78;63.72;99049.00;1845414;77;21028;-70
2021/08/31 00:34:35;;;;;;;11.18;9.78;;;;;;;24.78;63.70;99051.16;1829493;77;21005;-69
2021/08/31 00:37:02;;;;;;;10.25;9.03;;;;;;;24.77;63.64;99050.91;1824734;77;21008;-69
2021/08/31 00:39:28;;;;;;;10.68;9.58;;;;;;;24.77;63.68;99056.34;1814334;78;21036;-70
2021/08/31 00:41:55;;;;;;;9.60;8.78;;;;;;;24.78;63.60;99057.16;1848139;77;21050;-70
2021/08/31 00:44:25;;;;;;;10.05;9.08;;;;;;;24.76;63.50;99057.42;1803967;78;20998;-70
2021/08/31 00:46:52;;;;;;;9.28;8.38;;;;;;;24.76;63.45;99060.14;1831551;77;21041;-69
2021/08/31 00:49:18;;;;;;;9.65;8.75;;;;;;;24.75;63.39;99053.66;1822817;78;21098;-70
2021/08/31 00:51:46;;;;;;;9.75;8.75;;;;;;;24.75;63.35;99056.37;1833457;77;21068;-69
2021/08/31 00:54:14;;;;;;;9.83;8.90;;;;;;;24.73;63.32;99061.52;1791189;78;21024;-69
2021/08/31 00:56:44;;;;;;;10.05;9.15;;;;;;;24.72;63.33;99061.27;1827902;77;21056;-69
2021/08/31 00:59:12;;;;;;;9.70;8.80;;;;;;;24.71;63.34;99064.25;1818686;77;21088;-69
2021/08/31 01:01:39;;;;;;;9.83;8.83;;;;;;;24.72;63.30;99072.66;1825170;77;21047;-70
2021/08/31 01:04:06;;;;;;;9.48;8.58;;;;;;;24.71;63.26;99074.56;1812039;77;21489;-69
2021/08/31 01:06:33;;;;;;;10.03;9.03;;;;;;;24.70;63.21;99075.64;1823971;77;21524;-68
2021/08/31 01:09:01;;;;;;;9.68;8.75;;;;;;;24.69;63.26;99075.94;1814321;77;21001;-69
2021/08/31 01:11:27;;;;;;;9.80;8.80;;;;;;;24.70;63.26;99082.98;1794265;78;21582;-70
2021/08/31 01:13:55;;;;;;;10.20;9.30;;;;;;;24.69;63.28;99085.45;1823486;77;21041;-70
2021/08/31 01:16:21;;;;;;;8.90;8.10;;;;;;;24.68;63.31;99089.23;1823242;77;21036;-69
2021/08/31 01:18:49;;;;;;;9.65;8.75;;;;;;;24.68;63.33;99090.59;1815113;77;21008;-69
2021/08/31 01:21:18;;;;;;;9.40;8.28;;;;;;;24.68;63.19;99089.23;1796520;78;21055;-69
2021/08/31 01:23:49;;;;;;;8.70;7.90;;;;;;;24.68;63.15;99089.23;1822072;77;21032;-69
2021/08/31 01:26:18;;;;;;;8.95;8.25;;;;;;;24.68;63.21;99097.38;1818340;77;21549;-69
2021/08/31 01:28:45;;;;;;;9.18;8.35;;;;;;;24.68;63.16;99102.27;1807632;76;21045;-69
2021/08/31 01:31:11;;;;;;;10.32;7.92;;;;;;;24.67;63.15;99100.66;1807878;77;21073;-70
2021/08/31 01:33:38;;;;;;;9.15;8.15;;;;;;;24.67;63.04;99101.20;1826608;77;21013;-68
2021/08/31 01:36:20;;;;;;;8.80;7.75;;;;;;;24.68;62.93;99100.91;1815401;77;21120;-68
2021/08/31 01:38:49;;;;;;;9.65;8.75;;;;;;;24.67;62.90;99102.02;1809977;78;21005;-69
2021/08/31 01:41:15;;;;;;;9.73;8.83;;;;;;;24.67;62.93;99103.92;1816450;78;21001;-70
2021/08/31 01:43:43;;;;;;;9.73;8.58;;;;;;;24.66;62.87;99108.52;1822330;77;21842;-71
2021/08/31 01:46:10;;;;;;;9.53;8.63;;;;;;;24.66;62.86;99105.80;1785322;78;21069;-70
2021/08/31 01:48:36;;;;;;;10.05;9.03;;;;;;;24.66;62.85;99107.71;1811178;77;21044;-69
2021/08/31 01:51:04;;;;;;;11.30;8.83;;;;;;;24.66;62.73;99111.78;1795983;78;21072;-69
2021/08/31 01:53:35;;;;;;;9.40;8.60;;;;;;;24.66;62.66;99107.16;1810463;77;21021;-70
2021/08/31 01:56:03;;;;;;;10.10;9.05;;;;;;;24.66;62.60;99110.43;1816406;77;22302;-70
2021/08/31 01:58:30;;;;;;;9.45;8.55;;;;;;;24.65;62.51;99118.33;1815573;77;21508;-70
2021/08/31 02:00:57;;;;;;;9.55;8.60;;;;;;;24.64;62.50;99115.33;1808357;77;21022;-69
2021/08/31 02:03:23;;;;;;;10.10;8.73;;;;;;;24.62;62.42;99115.59;1785842;79;21049;-69
2021/08/31 02:05:50;;;;;;;9.63;8.58;;;;;;;24.62;62.34;99114.79;1813474;77;21512;-70
2021/08/31 02:08:16;;;;;;;9.58;8.75;;;;;;;24.61;62.25;99105.00;1809237;77;21299;-71
2021/08/31 02:10:43;;;;;;;10.28;9.28;;;;;;;24.59;62.21;99108.02;1784583;78;21080;-70
2021/08/31 02:13:10;;;;;;;10.95;9.03;;;;;;;24.59;62.33;99108.02;1782849;77;20970;-71
2021/08/31 02:15:36;;;;;;;9.98;8.78;;;;;;;24.59;62.27;99110.73;1823427;77;21047;-71
2021/08/31 02:18:03;;;;;;;9.88;8.48;;;;;;;24.59;62.28;99114.81;1811646;78;21029;-71
2021/08/31 02:20:31;;;;;;;10.18;8.98;;;;;;;24.60;62.28;99123.76;1793702;77;21384;-70
2021/08/31 02:22:57;;;;;;;9.35;8.38;;;;;;;24.59;62.16;99124.83;1785593;78;21019;-70
2021/08/31 02:25:23;;;;;;;9.70;8.48;;;;;;;24.59;62.11;99118.05;1771378;79;21465;-71
2021/08/31 02:27:50;;;;;;;11.03;9.28;;;;;;;24.58;62.13;99118.59;1811273;77;21013;-71
2021/08/31 02:30:17;;;;;;;10.90;9.68;;;;;;;24.58;62.08;99112.36;1808105;77;21028;-71
2021/08/31 02:32:48;;;;;;;10.55;9.55;;;;;;;24.56;62.11;99100.41;1798644;78;21384;-68
2021/08/31 02:35:14;;;;;;;10.05;9.15;;;;;;;24.58;62.12;99109.09;1799549;77;20998;-67
2021/08/31 02:37:43;;;;;;;9.95;9.05;;;;;;;24.57;62.12;99109.36;1821321;77;21037;-69
2021/08/31 02:40:11;;;;;;;10.10;9.10;;;;;;;24.55;62.17;99106.95;1781918;77;21018;-71
2021/08/31 02:42:38;;;;;;;10.08;9.18;;;;;;;24.55;62.20;99104.75;1831225;77;21016;-69
2021/08/31 02:45:06;;;;;;;9.85;8.95;;;;;;;24.53;62.13;99112.65;1788336;76;21081;-70
2021/08/31 02:47:33;;;;;;;11.60;9.40;;;;;;;24.51;62.21;99111.28;1820727;77;21043;-69
2021/08/31 02:49:59;;;;;;;9.73;8.83;;;;;;;24.48;62.29;99118.05;1805101;76;21085;-69
2021/08/31 02:52:26;;;;;;;11.15;9.00;;;;;;;24.47;62.30;99120.51;1804884;77;20985;-68
2021/08/31 02:54:52;;;;;;;10.18;8.90;;;;;;;24.47;62.09;99127.81;1796975;78;21029;-69
2021/08/31 02:57:19;;;;;;;9.90;8.98;;;;;;;24.45;62.16;99127.28;1801028;78;21089;-68
2021/08/31 02:59:46;;;;;;;10.90;9.43;;;;;;;24.43;62.15;99134.34;1830512;77;21029;-69
2021/08/31 03:02:14;;;;;;;10.85;9.85;;;;;;;24.42;62.16;99131.37;1831048;78;21004;-69
2021/08/31 03:04:43;;;;;;;12.85;11.57;;;;;;;24.42;62.22;99134.08;1821933;77;20974;-68
2021/08/31 03:07:13;;;;;;;9.55;8.63;;;;;;;24.42;62.25;99139.52;1827537;76;20997;-69
2021/08/31 03:09:41;;;;;;;10.40;9.40;;;;;;;24.44;62.17;99140.60;1819174;77;21124;-69
2021/08/31 03:12:09;;;;;;;9.93;8.93;;;;;;;24.45;62.15;99144.38;1795551;76;21134;-68
2021/08/31 03:14:37;;;;;;;9.48;8.55;;;;;;;24.44;62.16;99145.48;1817541;77;21505;-67
2021/08/31 03:17:05;;;;;;;10.75;9.45;;;;;;;24.45;62.12;99151.16;1818839;76;21068;-68
2021/08/31 03:19:31;;;;;;;10.45;9.35;;;;;;;24.46;61.98;99152.00;1825892;78;21591;-67
2021/08/31 03:21:59;;;;;;;16.70;10.68;;;;;;;24.44;61.95;99148.20;1828306;76;21045;-68
2021/08/31 03:24:26;;;;;;;10.28;9.30;;;;;;;24.45;61.89;99158.50;1828276;76;21532;-69
2021/08/31 03:26:54;;;;;;;8.93;8.00;;;;;;;24.44;61.72;99152.27;1820605;78;22083;-69
2021/08/31 03:29:22;;;;;;;9.88;8.35;;;;;;;24.43;61.50;99149.27;1830534;77;21067;-69
2021/08/31 03:31:50;;;;;;;9.20;8.30;;;;;;;24.42;61.40;99146.30;1832740;78;21493;-69
2021/08/31 03:34:17;;;;;;;8.98;8.08;;;;;;;24.41;61.26;99143.85;1801945;78;21091;-71
2021/08/31 03:36:45;;;;;;;9.80;8.80;;;;;;;24.40;61.11;99143.05;1813632;78;21025;-70
2021/08/31 03:39:12;;;;;;;9.33;8.53;;;;;;;24.38;61.07;99140.31;1831341;78;20994;-69
2021/08/31 03:41:39;;;;;;;11.12;8.35;;;;;;;24.37;61.13;99138.16;1808520;78;21009;-69
2021/08/31 03:44:05;;;;;;;9.13;8.00;;;;;;;24.37;61.08;99140.86;1818655;77;21181;-68
2021/08/31 03:46:32;;;;;;;8.55;7.65;;;;;;;24.37;61.07;99140.86;1806554;77;21174;-69
2021/08/31 03:49:01;;;;;;;10.25;8.38;;;;;;;24.37;60.92;99136.80;1826150;78;21220;-70
2021/08/31 03:51:27;;;;;;;8.00;7.20;;;;;;;24.36;60.87;99135.19;1823718;77;21076;-70
2021/08/31 03:53:56;;;;;;;10.98;8.48;;;;;;;24.37;60.76;99142.22;1825054;77;20978;-71
2021/08/31 03:56:23;;;;;;;9.03;8.13;;;;;;;24.37;60.83;99151.72;1828988;77;21056;-69
2021/08/31 03:58:50;;;;;;;9.05;7.15;;;;;;;24.37;60.73;99151.72;1826703;77;21979;-70
2021/08/31 04:01:17;;;;;;;13.28;7.80;;;;;;;24.38;60.68;99147.10;1809905;78;21087;-70
2021/08/31 04:03:43;;;;;;;8.23;7.40;;;;;;;24.38;60.67;99149.30;1826421;77;21058;-69
2021/08/31 04:06:10;;;;;;;8.15;6.92;;;;;;;24.38;60.57;99147.94;1824397;78;21045;-68
2021/08/31 04:08:36;;;;;;;7.65;6.95;;;;;;;24.38;60.53;99147.94;1830072;77;20985;-69
2021/08/31 04:11:03;;;;;;;7.75;6.95;;;;;;;24.39;60.42;99153.63;1826404;78;21989;-69
2021/08/31 04:13:30;;;;;;;8.00;7.20;;;;;;;24.39;60.42;99152.27;1818519;77;21012;-68
2021/08/31 04:15:57;;;;;;;13.30;10.03;;;;;;;24.40;60.32;99155.81;1823198;77;21079;-69
2021/08/31 04:18:25;;;;;;;8.25;7.47;;;;;;;24.40;60.26;99155.81;1822251;77;21025;-69
2021/08/31 04:20:51;;;;;;;8.43;7.62;;;;;;;24.41;60.07;99161.50;1828595;76;21111;-68
2021/08/31 04:23:19;;;;;;;8.38;7.58;;;;;;;24.40;60.04;99157.17;1809076;77;21525;-67
2021/08/31 04:25:45;;;;;;;9.60;7.95;;;;;;;24.40;59.94;99159.89;1809720;77;21013;-69
2021/08/31 04:28:11;;;;;;;8.08;7.33;;;;;;;24.39;59.64;99160.41;1817603;77;21047;-68
2021/08/31 04:30:38;;;;;;;7.62;6.92;;;;;;;24.40;59.54;99169.38;1829771;78;21054;-67
2021/08/31 04:33:05;;;;;;;7.80;6.65;;;;;;;24.39;59.25;99172.63;1808586;77;21076;-68
2021/08/31 04:35:32;;;;;;;8.25;7.28;;;;;;;24.39;59.16;99168.55;1828193;77;21125;-68
2021/08/31 04:38:00;;;;;;;7.70;7.00;;;;;;;24.38;58.98;99168.81;1830758;77;21467;-66
2021/08/31 04:40:27;;;;;;;6.85;6.15;;;;;;;24.40;58.83;99176.17;1797681;78;21115;-68
2021/08/31 04:42:53;;;;;;;7.17;6.47;;;;;;;24.38;58.58;99172.37;1819589;77;21095;-69
2021/08/31 04:45:20;;;;;;;8.15;7.00;;;;;;;24.39;58.47;99173.17;1795926;77;21592;-68
2021/08/31 04:47:46;;;;;;;7.10;6.42;;;;;;;24.38;58.41;99172.89;1819265;77;21133;-68
2021/08/31 04:50:13;;;;;;;7.53;6.83;;;;;;;24.38;58.10;99174.25;1814105;77;21005;-68
2021/08/31 04:52:40;;;;;;;7.15;6.45;;;;;;;24.36;58.09;99181.33;1818417;77;21049;-69
2021/08/31 04:55:08;;;;;;;7.12;6.45;;;;;;;24.36;57.84;99177.26;1824151;77;21015;-68
2021/08/31 04:57:34;;;;;;;6.85;6.25;;;;;;;24.34;57.86;99178.87;1817994;77;21181;-68
2021/08/31 05:00:01;;;;;;;9.20;6.70;;;;;;;24.35;57.68;99179.69;1819018;77;21075;-69
2021/08/31 05:02:29;;;;;;;6.80;6.10;;;;;;;24.35;57.67;99175.61;1815550;77;21018;-69
2021/08/31 05:04:56;;;;;;;8.53;6.45;;;;;;;24.34;57.57;99175.36;1810919;77;21009;-69
2021/08/31 05:07:22;;;;;;;8.55;6.60;;;;;;;24.34;57.58;99180.23;1810724;77;21488;-69
2021/08/31 05:09:48;;;;;;;9.90;7.50;;;;;;;24.32;57.42;99181.05;1818804;77;21072;-69
2021/08/31 05:12:15;;;;;;;7.95;7.15;;;;;;;24.30;57.11;99183.23;1804135;77;21137;-70
2021/08/31 05:14:42;;;;;;;8.48;7.30;;;;;;;24.28;56.78;99189.47;1809837;77;21040;-68
2021/08/31 05:17:08;;;;;;;10.23;7.03;;;;;;;24.25;56.74;99191.91;1801427;77;20983;-70
2021/08/31 05:19:34;;;;;;;7.30;6.37;;;;;;;24.23;56.83;99191.38;1807106;77;21108;-71
2021/08/31 05:22:01;;;;;;;7.60;6.60;;;;;;;24.20;56.71;99194.62;1810511;78;21091;-70
2021/08/31 05:24:29;;;;;;;7.12;6.42;;;;;;;24.16;56.96;99201.67;1817394;77;21106;-70
2021/08/31 05:26:58;;;;;;;6.72;5.97;;;;;;;24.11;57.22;99200.59;1801517;77;21069;-71
2021/08/31 05:29:24;;;;;;;8.70;6.30;;;;;;;24.08;57.16;99196.24;1798972;77;21068;-70
2021/08/31 05:31:50;;;;;;;6.47;5.75;;;;;;;24.04;56.93;99194.61;1809050;77;21033;-67
2021/08/31 05:34:17;;;;;;;7.53;6.83;;;;;;;24.01;57.20;99199.75;1806838;77;21084;-68
2021/08/31 05:36:43;;;;;;;8.05;6.45;;;;;;;24.00;57.17;99194.08;1818708;77;21114;-69
2021/08/31 05:39:10;;;;;;;7.03;6.05;;;;;;;23.99;57.01;99196.50;1818117;77;21475;-69
2021/08/31 05:41:37;;;;;;;8.90;6.28;;;;;;;23.97;56.62;99198.15;1818973;77;21085;-69
2021/08/31 05:44:04;;;;;;;6.47;5.87;;;;;;;23.95;57.21;99190.80;1800339;77;21084;-68
2021/08/31 05:46:31;;;;;;;9.25;5.60;;;;;;;23.96;57.32;99188.92;1800125;77;21049;-72
2021/08/31 05:48:57;;;;;;;11.22;6.22;;;;;;;23.94;56.82;99193.25;1800695;77;21081;-71
2021/08/31 05:51:24;;;;;;;6.83;5.78;;;;;;;23.93;56.40;99191.61;1796255;77;21045;-70
2021/08/31 05:53:50;;;;;;;6.20;5.70;;;;;;;23.89;55.99;99195.42;1811218;77;21536;-70
2021/08/31 05:58:55;;;;;;;6.87;5.72;;;;;;;23.90;56.85;99184.83;1859712;75;22641;-69
2021/08/31 06:01:21;;;;;;;7.95;6.40;;;;;;;23.87;57.21;99187.27;1855458;77;20984;-69
2021/08/31 06:03:48;;;;;;;28.17;21.33;;;;;;;23.91;56.53;99182.92;1835626;77;21916;-68
2021/08/31 06:06:18;;;;;;;9.75;8.48;;;;;;;23.95;56.68;99179.94;1839151;77;20973;-68
2021/08/31 06:08:44;;;;;;;7.53;6.85;;;;;;;23.99;56.72;99184.30;1856331;77;20934;-67
2021/08/31 06:11:11;;;;;;;9.55;6.97;;;;;;;24.02;56.33;99183.21;1856181;77;21518;-67
2021/08/31 06:13:39;;;;;;;8.35;6.10;;;;;;;24.06;56.07;99179.42;1854101;77;21064;-69
2021/08/31 06:16:06;;;;;;;7.42;6.30;;;;;;;24.05;55.65;99178.62;1851255;77;21210;-67
2021/08/31 06:18:33;;;;;;;10.25;5.97;;;;;;;24.06;55.95;99182.14;1825622;77;20997;-68
2021/08/31 06:21:00;;;;;;;10.40;9.00;;;;;;;24.08;55.91;99183.48;1840599;77;21091;-71
2021/08/31 06:23:26;;;;;;;33.13;26.23;;;;;;;24.09;55.39;99191.91;1836534;77;21116;-70
2021/08/31 06:25:53;;;;;;;11.35;9.35;;;;;;;24.08;54.90;99192.17;1851310;77;21087;-70
2021/08/31 06:28:19;;;;;;;9.95;7.55;;;;;;;24.02;54.15;99190.00;1849912;77;21783;-70
2021/08/31 06:30:45;;;;;;;11.15;7.15;;;;;;;23.94;54.27;99188.62;1849943;77;21056;-69
2021/08/31 06:33:12;;;;;;;7.00;6.30;;;;;;;23.90;54.45;99196.23;1856583;77;21071;-71
2021/08/31 06:35:38;;;;;;;6.78;5.83;;;;;;;23.87;54.68;99198.12;1853472;77;21560;-71
2021/08/31 06:38:05;;;;;;;6.53;5.92;;;;;;;23.86;54.67;99193.79;1848357;77;20964;-72
2021/08/31 06:40:31;;;;;;;6.78;6.17;;;;;;;23.82;54.55;99186.73;1845266;77;21134;-71
2021/08/31 06:42:58;;;;;;;6.25;5.62;;;;;;;23.78;54.82;99188.84;1830107;77;21020;-72
2021/08/31 06:45:25;;;;;;;5.92;5.05;;;;;;;23.75;54.20;99196.43;1837201;77;21071;-70
2021/08/31 06:47:51;;;;;;;6.28;5.60;;;;;;;23.70;54.57;99192.89;1837155;77;21057;-69
2021/08/31 06:50:17;;;;;;;6.35;5.75;;;;;;;23.67;54.75;99190.19;1830661;77;21031;-72
2021/08/31 06:52:45;;;;;;;7.92;5.47;;;;;;;23.66;54.73;99198.06;1839881;77;21760;-71
2021/08/31 06:55:14;;;;;;;5.35;4.95;;;;;;;23.65;54.59;99197.77;1840056;77;21012;-71
2021/08/31 06:57:40;;;;;;;9.10;7.95;;;;;;;23.63;53.88;99191.81;1829081;77;21563;-66
2021/08/31 07:00:08;;;;;;;14.83;11.75;;;;;;;23.55;53.53;99214.02;1836817;77;21095;-66
2021/08/31 07:02:34;;;;;;;10.45;8.15;;;;;;;23.48;53.85;99203.96;1834318;77;21016;-69
2021/08/31 07:05:01;;;;;;;7.00;6.25;;;;;;;23.45;54.11;99204.48;1847584;77;21104;-70
2021/08/31 07:07:28;;;;;;;8.25;6.42;;;;;;;23.46;54.39;99201.52;1845643;77;20998;-67
2021/08/31 07:09:54;;;;;;;7.60;6.65;;;;;;;23.46;54.52;99205.58;1827334;77;21040;-70
2021/08/31 07:12:21;;;;;;;6.95;6.25;;;;;;;23.47;54.78;99210.45;1807875;77;21060;-67
2021/08/31 07:14:48;;;;;;;7.05;6.20;;;;;;;23.46;54.25;99208.29;1828599;77;21127;-69
2021/08/31 07:17:15;;;;;;;6.67;6.10;;;;;;;23.40;54.19;99208.00;1849369;77;21106;-70
2021/08/31 07:19:42;;;;;;;6.58;5.78;;;;;;;23.31;54.19;99200.94;1846269;77;21001;-69
2021/08/31 07:22:11;;;;;;;6.30;5.62;;;;;;;23.26;54.18;99200.10;1853952;77;21056;-69
2021/08/31 07:24:38;;;;;;;6.03;5.15;;;;;;;23.23;54.59;99202.78;1847896;77;21143;-72
2021/08/31 07:27:04;;;;;;;5.80;5.30;;;;;;;23.24;54.23;99201.71;1827052;77;21109;-71
2021/08/31 07:29:31;;;;;;;7.47;5.08;;;;;;;23.22;53.92;99205.23;1831365;77;21050;-71
2021/08/31 07:31:57;;;;;;;5.85;4.62;;;;;;;23.22;53.80;99201.68;1829134;77;21567;-72
2021/08/31 07:34:24;;;;;;;5.22;4.83;;;;;;;23.23;54.09;99210.91;1848236;77;21196;-71
2021/08/31 07:36:50;;;;;;;5.40;4.90;;;;;;;23.24;53.67;99212.55;1837789;77;21058;-70
2021/08/31 07:39:16;;;;;;;7.75;5.35;;;;;;;23.24;53.55;99215.27;1851620;77;21025;-69
2021/08/31 07:41:43;;;;;;;5.58;5.08;;;;;;;23.23;53.63;99219.03;1856511;77;21063;-68
2021/08/31 07:44:10;;;;;;;6.30;5.78;;;;;;;23.19;53.55;99216.58;1833714;77;21559;-73
2021/08/31 07:46:37;;;;;;;6.58;5.40;;;;;;;23.14;53.89;99224.16;1816369;77;21092;-70
2021/08/31 07:49:03;;;;;;;5.78;5.28;;;;;;;23.11;53.75;99230.09;1844569;77;21143;-71
2021/08/31 07:51:31;;;;;;;7.70;4.97;;;;;;;23.07;53.46;99224.13;1837227;77;21084;-70
2021/08/31 07:53:57;;;;;;;10.38;8.43;;;;;;;23.05;53.90;99228.98;1830244;77;21093;-73
2021/08/31 07:56:24;;;;;;;25.17;22.37;;;;;;;23.08;54.29;99232.51;1829125;77;20982;-69
2021/08/31 07:58:51;;;;;;;8.90;7.97;;;;;;;23.12;54.31;99228.19;1840866;75;21052;-70
2021/08/31 08:01:17;;;;;;;5.92;5.42;;;;;;;23.13;54.23;99223.87;1856531;76;21087;-71
2021/08/31 08:03:45;;;;;;;7.00;5.45;;;;;;;23.13;54.05;99231.99;1839704;76;21075;-69
2021/08/31 08:06:11;;;;;;;5.40;4.92;;;;;;;23.10;53.95;99232.54;1842699;76;21034;-70
2021/08/31 08:08:38;;;;;;;6.15;4.92;;;;;;;23.04;53.92;99233.56;1847247;76;21536;-70
2021/08/31 08:11:04;;;;;;;5.83;5.22;;;;;;;23.01;54.13;99235.44;1844509;76;20990;-71
2021/08/31 08:13:30;;;;;;;5.92;5.25;;;;;;;23.03;54.32;99229.79;1855483;76;21063;-70
2021/08/31 08:15:57;;;;;;;5.67;5.08;;;;;;;23.04;54.09;99222.73;1848942;76;21005;-68
2021/08/31 08:18:23;;;;;;;6.60;4.65;;;;;;;23.06;54.29;99227.89;1855732;76;21260;-69
2021/08/31 08:20:50;;;;;;;5.78;4.75;;;;;;;23.07;53.91;99226.28;1854010;76;21086;-69
2021/08/31 08:23:17;;;;;;;7.90;5.37;;;;;;;23.08;53.51;99225.73;1848193;76;21048;-69
2021/08/31 08:25:43;;;;;;;7.65;4.97;;;;;;;23.08;53.62;99236.05;1844896;76;21510;-67
2021/08/31 08:28:10;;;;;;;6.30;5.50;;;;;;;23.11;53.60;99235.51;1853212;76;21575;-70
2021/08/31 08:30:36;;;;;;;7.12;5.35;;;;;;;23.14;54.05;99230.09;1854855;76;21124;-69
2021/08/31 08:33:02;;;;;;;7.12;5.25;;;;;;;23.20;54.51;99232.30;1851160;76;21253;-68
2021/08/31 08:35:29;;;;;;;6.60;5.92;;;;;;;23.29;54.65;99230.72;1848920;76;21027;-68
2021/08/31 08:37:57;;;;;;;6.92;6.22;;;;;;;;;;1865922;76;21075;-70
2021/08/31 08:40:23;;;;;;;6.62;6.03;;;;;;;23.46;55.09;99234.04;1842400;76;21052;-68
2021/08/31 08:42:52;;;;;;;6.33;5.33;;;;;;;23.55;54.88;99237.06;1837337;76;21091;-69
2021/08/31 08:45:19;;;;;;;6.33;5.65;;;;;;;23.64;54.70;99239.55;1859242;76;21059;-68
2021/08/31 08:47:45;;;;;;;4.70;4.30;;;;;;;23.70;54.01;99237.11;1853062;76;21508;-68
2021/08/31 08:50:12;;;;;;;4.92;4.53;;;;;;;23.75;52.92;99232.23;1847046;76;21040;-69
2021/08/31 08:52:38;;;;;;;4.30;3.90;;;;;;;23.75;52.24;99233.05;1858213;76;21028;-66
2021/08/31 08:55:10;;;;;;;9.73;8.23;;;;;;;23.74;51.70;99239.56;1857803;76;21131;-71
2021/08/31 08:57:37;;;;;;;6.42;4.87;;;;;;;23.72;51.56;99233.59;1793572;79;21093;-69
2021/08/31 09:00:06;;;;;;;5.08;4.62;;;;;;;23.70;51.23;99228.98;1779664;78;21001;-69
2021/08/31 09:02:39;;;;;;;5.58;4.53;;;;;;;23.70;51.21;99237.63;1766979;78;21020;-66
2021/08/31 09:05:09;;;;;;;6.70;4.58;;;;;;;23.70;51.52;99230.85;1799099;78;20990;-66
2021/08/31 09:07:39;;;;;;;5.15;4.60;;;;;;;23.72;51.65;99230.05;1813254;78;21565;-66
2021/08/31 09:10:15;;;;;;;7.28;4.30;;;;;;;23.77;51.69;99228.71;1768947;78;21107;-70
2021/08/31 09:12:42;;;;;;;5.20;4.75;;;;;;;23.82;52.11;99224.70;1774728;79;20968;-72
2021/08/31 09:15:30;;;;;;;4.17;3.85;;;;;;;23.89;51.85;99233.92;1765765;80;21025;-72
2021/08/31 09:18:11;;;;;;;4.40;4.03;;;;;;;23.93;51.74;99232.30;1802551;78;21024;-70
2021/08/31 09:20:46;;;;;;;4.60;4.20;;;;;;;23.99;51.62;99228.53;1786462;78;21160;-70
2021/08/31 09:23:21;;;;;;;8.43;4.85;;;;;;;24.07;51.54;99233.97;1795934;78;20970;-67
2021/08/31 09:25:51;;;;;;;5.33;4.22;;;;;;;24.16;51.64;99228.81;1821901;78;21069;-72
2021/08/31 09:28:29;;;;;;;4.50;4.10;;;;;;;24.24;52.24;99233.17;1812358;78;21117;-69
2021/08/31 09:31:06;;;;;;;5.05;4.00;;;;;;;24.31;51.57;99237.77;1784579;80;20978;-71
2021/08/31 09:33:41;;;;;;;4.33;3.92;;;;;;;24.34;50.53;99239.95;1821206;78;21138;-71
2021/08/31 09:36:20;;;;;;;3.67;3.37;;;;;;;24.37;49.94;99238.59;1822559;78;21029;-70
2021/08/31 09:38:57;;;;;;;4.65;3.80;;;;;;;24.39;50.17;99237.77;1806404;78;20982;-71
2021/08/31 09:41:35;;;;;;;3.77;3.47;;;;;;;24.44;49.94;99242.41;1801676;78;21033;-72
2021/08/31 09:44:06;;;;;;;3.33;3.05;;;;;;;24.49;49.41;99228.28;1803605;78;21006;-70
2021/08/31 09:47:00;;;;;;;4.72;3.30;;;;;;;24.56;49.39;99234.02;1811270;78;21501;-70
2021/08/31 09:49:40;;;;;;;3.47;3.15;;;;;;;24.61;49.29;99233.47;1821082;78;21086;-72
2021/08/31 09:52:15;;;;;;;8.60;7.80;;;;;;;24.69;48.60;99229.38;1798021;78;20990;-71
2021/08/31 09:54:48;;;;;;;6.10;5.55;;;;;;;24.76;48.45;99236.69;1734917;80;20987;-71
2021/08/31 09:57:36;;;;;;;4.65;4.17;;;;;;;24.85;48.21;99239.67;1779587;79;21037;-71
2021/08/31 10:00:10;;;;;;;3.95;3.65;;;;;;;24.92;47.89;99235.58;1782145;78;21114;-70
2021/08/31 10:02:38;;;;;;;3.90;3.50;;;;;;;25.00;47.71;99241.55;1820894;78;21087;-70
2021/08/31 10:05:06;;;;;;;4.47;4.05;;;;;;;25.07;47.48;99236.09;1829060;78;21483;-75
2021/08/31 10:07:32;;;;;;;4.00;3.58;;;;;;;25.15;47.21;99233.88;1818826;78;21572;-73
2021/08/31 10:10:00;;;;;;;7.80;3.47;;;;;;;25.23;47.29;99243.68;1787274;79;21017;-69
2021/08/31 10:12:26;;;;;;;3.55;3.25;;;;;;;25.31;47.14;99232.78;1817259;78;21116;-70
2021/08/31 10:14:55;;;;;;;5.87;2.98;;;;;;;25.38;46.88;99234.67;1822600;78;21058;-70
2021/08/31 10:17:27;;;;;;;3.20;3.00;;;;;;;25.44;46.62;99238.98;1815531;78;21001;-70
2021/08/31 10:20:01;;;;;;;3.50;3.20;;;;;;;25.52;46.54;99237.59;1823263;78;21100;-70
2021/08/31 10:22:28;;;;;;;4.05;3.15;;;;;;;25.59;46.10;99245.43;1789077;79;21052;-71
2021/08/31 10:24:54;;;;;;;3.15;2.95;;;;;;;25.66;45.30;99235.07;1818704;78;21135;-71
2021/08/31 10:27:37;;;;;;;5.40;4.90;;;;;;;25.69;44.97;99246.20;1805374;78;21036;-69
2021/08/31 10:30:27;;;;;;;3.70;3.40;;;;;;;25.70;44.38;99242.38;1822357;78;21767;-69
2021/08/31 10:32:58;;;;;;;3.42;3.12;;;;;;;25.71;44.13;99240.49;1812137;78;21057;-71
2021/08/31 10:35:39;;;;;;;3.40;3.10;;;;;;;25.74;44.20;99242.63;1787200;79;21061;-68
2021/08/31 10:38:09;;;;;;;3.60;3.30;;;;;;;25.75;44.41;99242.08;1781071;78;21526;-75
2021/08/31 10:40:45;;;;;;;3.70;2.80;;;;;;;25.78;45.49;99253.22;1825212;78;21017;-76
2021/08/31 10:43:18;;;;;;;3.12;2.85;;;;;;;25.80;45.82;99234.70;1806373;78;20964;-76
2021/08/31 10:45:54;;;;;;;6.25;3.70;;;;;;;25.77;46.80;99228.48;1780727;79;21192;-76
2021/08/31 10:48:26;;;;;;;4.22;2.80;;;;;;;25.90;46.45;99244.72;1797726;78;20983;-77
2021/08/31 10:51:03;;;;;;;4.03;3.10;;;;;;;25.94;47.36;99241.75;1796699;78;21165;-76
2021/08/31 10:53:44;;;;;;;4.30;3.25;;;;;;;25.97;46.75;99239.81;1793101;76;21013;-78
2021/08/31 10:56:29;;;;;;;4.65;3.20;;;;;;;25.99;46.55;99247.14;1791230;76;20978;-75
2021/08/31 10:59:03;;;;;;;3.08;2.77;;;;;;;26.02;46.59;99247.12;1803228;79;21006;-77
2021/08/31 11:01:42;;;;;;;5.28;2.67;;;;;;;26.06;45.78;99251.73;1809993;76;21102;-78
2021/08/31 11:04:30;;;;;;;2.67;2.47;;;;;;;26.07;44.77;99233.48;1793671;79;21087;-75
2021/08/31 11:07:01;;;;;;;3.05;2.77;;;;;;;26.14;45.23;99239.98;1806031;78;20925;-78
2021/08/31 11:09:28;;;;;;;3.35;2.85;;;;;;;26.19;44.96;99239.41;1784006;79;21004;-78
2021/08/31 11:12:08;;;;;;;5.85;4.28;;;;;;;26.25;46.27;99236.06;1760051;77;20939;-77
2021/08/31 11:14:47;;;;;;;5.37;3.80;;;;;;;26.33;45.66;99233.28;1770519;78;21009;-79
2021/08/31 11:17:31;;;;;;;5.12;3.72;;;;;;;26.42;46.64;99237.83;1753947;80;21146;-77
2021/08/31 11:20:23;;;;;;;3.83;3.40;;;;;;;26.48;46.59;99233.99;1784055;77;21106;-78
2021/08/31 11:23:10;;;;;;;3.22;2.90;;;;;;;26.57;46.91;99240.17;1758491;76;21060;-77
2021/08/31 11:25:49;;;;;;;4.00;3.00;;;;;;;26.60;44.62;99243.17;1800501;77;20958;-77
2021/08/31 11:28:27;;;;;;;3.65;2.70;;;;;;;26.59;44.77;99252.99;1768480;78;21064;-77
2021/08/31 11:31:03;;;;;;;2.80;2.60;;;;;;;26.56;43.62;99248.07;1762998;76;21091;-75
2021/08/31 11:33:38;;;;;;;2.77;2.47;;;;;;;26.49;44.10;99241.05;1783732;76;21020;-77
2021/08/31 11:36:10;;;;;;;3.90;2.90;;;;;;;26.48;45.10;99240.80;1754233;77;20961;-76
2021/08/31 11:38:46;;;;;;;5.27;2.63;;;;;;;26.54;46.32;99247.02;1771657;80;20935;-79
2021/08/31 11:41:30;;;;;;;3.40;3.10;;;;;;;26.60;46.11;99242.38;1771717;80;20935;-77